Aviation Digital Data Service (ADDS)

Output produced by METARs form (0345 UTC 23 November 2017)
found at http://www.aviationweather.gov/adds/metars/
 
ENAT 230250Z AUTO 15009KT 8000 -SN VV006 M13/M15 Q1023 RMK WIND 700FT 16012KT
TAF ENAT 230200Z 2303/2312 17008KT 9999 FEW005 SCT020 
     TEMPO 2303/2312 BKN006 
     TEMPO 2306/2312 16015G25KT
       
ENAN 230320Z AUTO 12032KT 9999 NCD M01/M08 Q1007
TAF ENAN 2300/2324 14028KT 9999 FEW040 SCT100 
     TEMPO 2300/2324 15030G45KT
       
ENML 230320Z AUTO 04008KT 9999NDV OVC054/// 04/M01 Q0975
ENNA 230320Z AUTO 18013KT 9999 NCD M12/M14 Q1023 RMK WIND 1800FT 16019KT
TAF AMD ENNA 2301/2324 18005KT 9999 FEW005 SCT030 
     BECMG 2302/2305 18015KT 
     TEMPO 2301/2309 BKN009 
     TEMPO 2312/2324 18025G40KT 
     PROB40 
     TEMPO 2321/2324 4000 -SN BKN006
       
ENDU 230320Z AUTO 10019KT 9999 NCD M06/M13 Q1012 RMK WIND 1100FT VRB05KT WIND 2200FT 10038KT
TAF ENDU 2300/2324 10018KT 9999 FEW030 SCT070 
     TEMPO 2300/2306 12020G30KT 
     TEMPO 2306/2324 12030G45KT 
     PROB40 
     TEMPO 2309/2318 2000 -SN BLSN VV008
       
ENBS 222150Z VRB03KT 7000 -SHSN SCT010 BKN023 M04/M05 Q1023
ENBR 230250Z 19003KT 9999 -RADZ SCT005 BKN010 07/07 Q0974 RMK WIND 1200FT 26006KT
TAF ENBR 2300/2324 VRB07KT 9999 -RA FEW010 BKN020 
     TEMPO 2300/2316 3000 RADZ BR BKN006 
     BECMG 2310/2313 15018G30KT 
     PROB30 2313/2317 16030G45KT 
     BECMG 2316/2319 21015G25KT 
     TEMPO 2316/2324 4000 SHRAGS BKN012CB
       
ENBO 230250Z 09034G52KT 9999 FEW040 BKN090 01/M05 Q0998
TAF ENBO 2300/2324 12035G45KT 9999 FEW040 BKN090 
     TEMPO 2300/2315 12045G65KT 
     BECMG 2315/2317 10035KT 
     TEMPO 2315/2324 10035G50KT
       
ENBL 222220Z 14007KT 100V190 9999 -SN SCT025 BKN030 02/M02 Q0978
ENBN 230320Z AUTO 13043G70KT 9999NDV -RA VV019 03/M02 Q0984
ENEV 230320Z AUTO 12021G35KT 080V150 9999 BKN068/// M03/M10 Q1007 RMK WIND 1400FT 11030G42KT
TAF ENEV 230200Z 2303/2312 12020KT 9999 FEW030 BKN080 
     TEMPO 2303/2309 12025G40KT 
     TEMPO 2309/2312 12035G50KT
       
ENFL 230320Z AUTO 12009KT 9999NDV -RA FEW016/// OVC020/// 05/03 Q0974
ENHD 230320Z AUTO 19023G37KT 4100 DZ BKN006/// OVC008/// 11/10 Q0973
TAF ENHD 230200Z 2303/2312 19020KT 8000 -RA SCT007 BKN015 
     TEMPO 2303/2312 19025G38KT 3000 RADZ BR OVC006
       
ENKR 230320Z AUTO 17006KT 0650 R06/P2000N R24/1900N SG OVC002/// M19/M21 Q1024 RESN RMK WIND 731FT 17003KT
TAF ENKR 230200Z 2303/2312 16008KT 2000 -SN BR BKN002 
     TEMPO 2303/2312 6000 -SN FEW002 SCT020 
     PROB40 2303/2312 0500 FZFG VV001
       
ENCN 230320Z AUTO 21021G35KT 7000 BKN018/// OVC022/// 11/08 Q0983
TAF ENCN 230200Z 2303/2312 20020KT 9000 -RA FEW012 BKN025 
     TEMPO 2303/2312 21025G40KT 4000 RADZ OVC008
       
ENKB 230320Z AUTO 15007KT 090V190 9999 SCT046/// BKN072/// OVC098/// 05/M01 Q0975 RMK WIND 745FT 16022KT
TAF ENKB 230200Z 2304/2312 14008KT 9999 -RA FEW040 BKN080
       
ENOL 230250Z 14028KT 9999 FEW020 BKN070 04/M02 Q0977
TAF ENOL 2300/2324 13035G45KT 9999 FEW030 BKN070 
     BECMG 2302/2305 13025G35KT 
     BECMG 2306/2309 13015G25KT 
     TEMPO 2316/2318 14030G40KT 
     TEMPO 2321/2323 23025G35KT 4000 SHRAGS BKN012CB
       
ENGM 230320Z 03002KT 3800 -RA BR BKN002 00/M00 Q0984
AMD ENGM 2302/2324 VRB05KT 7000 -RA SCT004 BKN010 
     TEMPO 2302/2306 2000 -RA BR OVC002 
     BECMG 2303/2305 18015KT 
     TEMPO 2306/2318 19020G35KT 4000 RADZ BR OVC008 
     BECMG 2318/2320 FEW012 SCT025 
     TEMPO 2323/2324 2000 SHSNRA BKN008 FEW020CB
       
ENRO 230320Z AUTO 36006KT 310V090 2800NDV -SN OVC013/// M01/M02 Q0981
TAF ENRO 230200Z 2303/2312 12012KT 4000 -SN VV012 
     TEMPO 2303/2306 1200 SN VV005 
     PROB30 2305/2307 FZRA 
     BECMG 2306/2309 7000 -RA BKN015 
     TEMPO 2306/2312 BKN008 
     TEMPO 2303/2312 14020G35KT
       
ENRY 230320Z AUTO 18020G33KT 6000NDV DZ SCT009/// BKN018/// OVC025/// 09/07 Q0986
TAF ENRY 2300/2324 VRB05KT 4000 -RADZ SCT004 OVC012 
     TEMPO 2300/2301 2000 RA BR OVC004 
     BECMG 2300/2302 18022KT 8000 FEW008 BKN020 
     TEMPO 2301/2317 19028G40KT RA BKN012 
     BECMG 2317/2319 22012KT 
     TEMPO 2322/2324 23025G40KT SHRA BKN015 SCT020CB
       
ENZV 230250Z 18021G32KT 9000 RA BKN006 10/09 Q0976
TAF ENZV 2300/2324 18020KT 9999 -RA SCT007 BKN015 
     TEMPO 2300/2312 19025G35KT 3000 RADZ BR BKN005 
     BECMG 2312/2315 24018G28KT 
     TEMPO 2312/2324 4000 SHRAGS BKN012CB
       
ENTO 230320Z AUTO 19022KT 7000 BKN011/// OVC015/// 08/08 Q0985
TAF ENTO 2300/2324 19022KT 7000 -RADZ SCT008 BKN020 
     PROB30 
     TEMPO 2300/2301 2000 SG FZRA BR OVC003 
     TEMPO 2300/2317 19028G40KT RA BKN008 
     BECMG 2317/2319 21012KT 
     TEMPO 2321/2324 23020G35KT 4000 SHRASN BKN012 SCT020CB
       
ENTC 230320Z 22005KT 120V260 CAVOK M05/M14 Q1014 RMK WIND 2600FT 15028KT
TAF ENTC 2300/2324 18008KT 9999 FEW040 SCT080 
     BECMG 2305/2308 17020KT 
     TEMPO 2308/2324 16025G40KT
       
ENVA 230250Z 12016G27KT 090V160 9999 BKN064 06/M03 Q0981 RMK WIND 670FT 15026G39KT
TAF ENVA 2300/2324 13018G30KT 9999 -SN SCT020 BKN060 
     TEMPO 2300/2318 14030G45KT 
     PROB40 2300/2306 3000 SNRA VV015
       
ENAL 230320Z AUTO 12012KT 9999 OVC036/// 07/00 Q0973 REDZ
TAF ENAL 230200Z 2304/2312 12015KT 9999 -RA BKN030 
     BECMG 2306/2309 19010KT 
     TEMPO 2304/2312 RA